sensor_id;sensor_type;location;lat;lon;timestamp;P1;durP1;ratioP1;P2;durP2;ratioP2
20142;SDS011;10509;46.476;7.134;2022-11-09T00:02:10;2.20;;;1.33;;
20142;SDS011;10509;46.476;7.134;2022-11-09T00:04:36;2.33;;;1.70;;
20142;SDS011;10509;46.476;7.134;2022-11-09T00:07:04;2.30;;;2.07;;
20142;SDS011;10509;46.476;7.134;2022-11-09T00:09:29;1.70;;;1.60;;
20142;SDS011;10509;46.476;7.134;2022-11-09T00:11:55;2.90;;;1.40;;
20142;SDS011;10509;46.476;7.134;2022-11-09T00:14:21;2.20;;;1.93;;
20142;SDS011;10509;46.476;7.134;2022-11-09T00:16:47;2.13;;;1.73;;
20142;SDS011;10509;46.476;7.134;2022-11-09T00:19:13;2.10;;;1.50;;
20142;SDS011;10509;46.476;7.134;2022-11-09T00:21:39;2.40;;;1.47;;
20142;SDS011;10509;46.476;7.134;2022-11-09T00:24:05;2.33;;;1.33;;
20142;SDS011;10509;46.476;7.134;2022-11-09T00:26:31;2.03;;;1.43;;
20142;SDS011;10509;46.476;7.134;2022-11-09T00:28:57;1.83;;;1.10;;
20142;SDS011;10509;46.476;7.134;2022-11-09T00:31:24;1.77;;;1.30;;
20142;SDS011;10509;46.476;7.134;2022-11-09T00:33:51;2.00;;;0.90;;
20142;SDS011;10509;46.476;7.134;2022-11-09T00:36:18;1.57;;;1.47;;
20142;SDS011;10509;46.476;7.134;2022-11-09T00:38:47;2.23;;;1.50;;
20142;SDS011;10509;46.476;7.134;2022-11-09T00:41:13;2.30;;;1.43;;
20142;SDS011;10509;46.476;7.134;2022-11-09T00:43:39;1.37;;;1.07;;
20142;SDS011;10509;46.476;7.134;2022-11-09T00:46:05;2.07;;;1.17;;
20142;SDS011;10509;46.476;7.134;2022-11-09T00:48:31;2.07;;;1.50;;
20142;SDS011;10509;46.476;7.134;2022-11-09T00:50:57;2.50;;;1.90;;
20142;SDS011;10509;46.476;7.134;2022-11-09T00:53:24;2.80;;;1.30;;
20142;SDS011;10509;46.476;7.134;2022-11-09T00:55:58;2.27;;;0.90;;
20142;SDS011;10509;46.476;7.134;2022-11-09T00:58:25;0.93;;;0.80;;
20142;SDS011;10509;46.476;7.134;2022-11-09T01:00:51;1.20;;;1.10;;
20142;SDS011;10509;46.476;7.134;2022-11-09T01:03:18;2.03;;;1.00;;
20142;SDS011;10509;46.476;7.134;2022-11-09T01:05:44;0.90;;;0.80;;
20142;SDS011;10509;46.476;7.134;2022-11-09T01:08:10;0.80;;;0.70;;
20142;SDS011;10509;46.476;7.134;2022-11-09T01:10:40;0.80;;;0.70;;
20142;SDS011;10509;46.476;7.134;2022-11-09T01:13:07;1.00;;;0.90;;
20142;SDS011;10509;46.476;7.134;2022-11-09T01:15:33;0.80;;;0.70;;
20142;SDS011;10509;46.476;7.134;2022-11-09T01:17:59;1.67;;;0.90;;
20142;SDS011;10509;46.476;7.134;2022-11-09T01:20:25;1.07;;;0.90;;
20142;SDS011;10509;46.476;7.134;2022-11-09T01:22:51;1.40;;;1.00;;
20142;SDS011;10509;46.476;7.134;2022-11-09T01:25:17;0.93;;;0.83;;
20142;SDS011;10509;46.476;7.134;2022-11-09T01:27:43;1.10;;;1.00;;
20142;SDS011;10509;46.476;7.134;2022-11-09T01:30:09;1.10;;;1.00;;
20142;SDS011;10509;46.476;7.134;2022-11-09T01:32:35;2.27;;;1.10;;
20142;SDS011;10509;46.476;7.134;2022-11-09T01:35:01;2.30;;;1.10;;
20142;SDS011;10509;46.476;7.134;2022-11-09T01:37:27;2.03;;;1.33;;
20142;SDS011;10509;46.476;7.134;2022-11-09T01:39:53;1.20;;;0.90;;
20142;SDS011;10509;46.476;7.134;2022-11-09T01:42:23;1.60;;;1.07;;
20142;SDS011;10509;46.476;7.134;2022-11-09T01:45:12;1.53;;;1.20;;
20142;SDS011;10509;46.476;7.134;2022-11-09T01:47:35;1.97;;;0.80;;
20142;SDS011;10509;46.476;7.134;2022-11-09T01:50:02;1.43;;;0.90;;
20142;SDS011;10509;46.476;7.134;2022-11-09T01:52:31;0.90;;;0.70;;
20142;SDS011;10509;46.476;7.134;2022-11-09T01:55:05;1.37;;;0.60;;
20142;SDS011;10509;46.476;7.134;2022-11-09T01:57:33;0.70;;;0.67;;
20142;SDS011;10509;46.476;7.134;2022-11-09T02:00:03;2.27;;;0.83;;
20142;SDS011;10509;46.476;7.134;2022-11-09T02:02:31;1.27;;;0.90;;
20142;SDS011;10509;46.476;7.134;2022-11-09T02:05:01;1.00;;;0.80;;
20142;SDS011;10509;46.476;7.134;2022-11-09T02:07:28;1.47;;;0.90;;
20142;SDS011;10509;46.476;7.134;2022-11-09T02:09:56;1.20;;;0.80;;
20142;SDS011;10509;46.476;7.134;2022-11-09T02:12:24;1.93;;;0.80;;
20142;SDS011;10509;46.476;7.134;2022-11-09T02:14:51;0.90;;;0.57;;
20142;SDS011;10509;46.476;7.134;2022-11-09T02:17:17;1.20;;;0.80;;
20142;SDS011;10509;46.476;7.134;2022-11-09T02:19:43;1.13;;;0.70;;
20142;SDS011;10509;46.476;7.134;2022-11-09T02:22:09;1.90;;;0.83;;
20142;SDS011;10509;46.476;7.134;2022-11-09T02:24:35;1.33;;;1.03;;
20142;SDS011;10509;46.476;7.134;2022-11-09T02:27:03;1.63;;;0.70;;
20142;SDS011;10509;46.476;7.134;2022-11-09T02:29:43;0.97;;;0.70;;
20142;SDS011;10509;46.476;7.134;2022-11-09T02:32:17;0.93;;;0.70;;
20142;SDS011;10509;46.476;7.134;2022-11-09T02:34:44;1.00;;;0.60;;
20142;SDS011;10509;46.476;7.134;2022-11-09T02:37:10;1.37;;;0.90;;
20142;SDS011;10509;46.476;7.134;2022-11-09T02:39:36;1.90;;;0.80;;
20142;SDS011;10509;46.476;7.134;2022-11-09T02:42:07;0.93;;;0.70;;
20142;SDS011;10509;46.476;7.134;2022-11-09T02:44:35;2.33;;;0.90;;
20142;SDS011;10509;46.476;7.134;2022-11-09T02:47:03;1.70;;;1.03;;
20142;SDS011;10509;46.476;7.134;2022-11-09T02:49:29;1.67;;;0.77;;
20142;SDS011;10509;46.476;7.134;2022-11-09T02:51:55;1.00;;;0.80;;
20142;SDS011;10509;46.476;7.134;2022-11-09T02:54:21;1.00;;;0.77;;
20142;SDS011;10509;46.476;7.134;2022-11-09T02:56:47;1.47;;;0.70;;
20142;SDS011;10509;46.476;7.134;2022-11-09T02:59:12;1.37;;;0.80;;
20142;SDS011;10509;46.476;7.134;2022-11-09T03:01:38;1.77;;;0.80;;
20142;SDS011;10509;46.476;7.134;2022-11-09T03:04:04;1.23;;;0.70;;
20142;SDS011;10509;46.476;7.134;2022-11-09T03:06:30;2.23;;;0.80;;
20142;SDS011;10509;46.476;7.134;2022-11-09T03:09:03;1.93;;;0.77;;
20142;SDS011;10509;46.476;7.134;2022-11-09T03:11:29;1.10;;;0.80;;
20142;SDS011;10509;46.476;7.134;2022-11-09T03:13:55;0.90;;;0.67;;
20142;SDS011;10509;46.476;7.134;2022-11-09T03:16:21;0.90;;;0.70;;
20142;SDS011;10509;46.476;7.134;2022-11-09T03:18:48;1.20;;;0.80;;
20142;SDS011;10509;46.476;7.134;2022-11-09T03:21:14;1.17;;;0.77;;
20142;SDS011;10509;46.476;7.134;2022-11-09T03:23:40;0.70;;;0.60;;
20142;SDS011;10509;46.476;7.134;2022-11-09T03:26:06;1.17;;;0.77;;
20142;SDS011;10509;46.476;7.134;2022-11-09T03:28:32;0.90;;;0.70;;
20142;SDS011;10509;46.476;7.134;2022-11-09T03:30:58;1.37;;;0.67;;
20142;SDS011;10509;46.476;7.134;2022-11-09T03:33:24;1.10;;;0.80;;
20142;SDS011;10509;46.476;7.134;2022-11-09T03:35:50;3.00;;;0.90;;
20142;SDS011;10509;46.476;7.134;2022-11-09T03:38:16;0.90;;;0.80;;
20142;SDS011;10509;46.476;7.134;2022-11-09T03:40:42;1.43;;;0.80;;
20142;SDS011;10509;46.476;7.134;2022-11-09T03:43:08;1.17;;;0.90;;
20142;SDS011;10509;46.476;7.134;2022-11-09T03:45:34;1.53;;;0.80;;
20142;SDS011;10509;46.476;7.134;2022-11-09T03:48:00;1.40;;;0.60;;
20142;SDS011;10509;46.476;7.134;2022-11-09T03:50:27;0.83;;;0.60;;
20142;SDS011;10509;46.476;7.134;2022-11-09T03:52:53;1.47;;;0.77;;
20142;SDS011;10509;46.476;7.134;2022-11-09T03:55:19;1.57;;;0.70;;
20142;SDS011;10509;46.476;7.134;2022-11-09T03:57:45;1.27;;;0.80;;
20142;SDS011;10509;46.476;7.134;2022-11-09T04:00:13;1.57;;;0.70;;
20142;SDS011;10509;46.476;7.134;2022-11-09T04:02:39;2.03;;;0.73;;
20142;SDS011;10509;46.476;7.134;2022-11-09T04:05:05;1.00;;;0.60;;
20142;SDS011;10509;46.476;7.134;2022-11-09T04:07:31;0.93;;;0.70;;
20142;SDS011;10509;46.476;7.134;2022-11-09T04:09:57;2.30;;;2.00;;
20142;SDS011;10509;46.476;7.134;2022-11-09T04:12:24;0.80;;;0.70;;
20142;SDS011;10509;46.476;7.134;2022-11-09T04:14:52;0.97;;;0.80;;
20142;SDS011;10509;46.476;7.134;2022-11-09T04:17:18;0.60;;;0.60;;
20142;SDS011;10509;46.476;7.134;2022-11-09T04:19:44;1.00;;;0.60;;
20142;SDS011;10509;46.476;7.134;2022-11-09T04:22:10;2.23;;;0.90;;
20142;SDS011;10509;46.476;7.134;2022-11-09T04:24:36;1.43;;;1.33;;
20142;SDS011;10509;46.476;7.134;2022-11-09T04:27:02;1.40;;;0.90;;
20142;SDS011;10509;46.476;7.134;2022-11-09T04:29:28;1.67;;;0.80;;
20142;SDS011;10509;46.476;7.134;2022-11-09T04:31:54;1.37;;;1.00;;
20142;SDS011;10509;46.476;7.134;2022-11-09T04:34:20;3.00;;;1.20;;
20142;SDS011;10509;46.476;7.134;2022-11-09T04:36:46;3.77;;;0.80;;
20142;SDS011;10509;46.476;7.134;2022-11-09T04:39:12;1.97;;;0.87;;
20142;SDS011;10509;46.476;7.134;2022-11-09T04:41:38;1.27;;;0.83;;
20142;SDS011;10509;46.476;7.134;2022-11-09T04:44:04;1.10;;;0.80;;
20142;SDS011;10509;46.476;7.134;2022-11-09T04:46:30;2.07;;;1.10;;
20142;SDS011;10509;46.476;7.134;2022-11-09T04:48:57;1.47;;;0.80;;
20142;SDS011;10509;46.476;7.134;2022-11-09T04:51:23;1.90;;;0.90;;
20142;SDS011;10509;46.476;7.134;2022-11-09T04:53:49;1.97;;;1.00;;
20142;SDS011;10509;46.476;7.134;2022-11-09T04:56:14;1.47;;;1.00;;
20142;SDS011;10509;46.476;7.134;2022-11-09T04:58:40;1.73;;;1.10;;
20142;SDS011;10509;46.476;7.134;2022-11-09T05:01:09;1.97;;;1.07;;
20142;SDS011;10509;46.476;7.134;2022-11-09T05:03:35;2.00;;;1.10;;
20142;SDS011;10509;46.476;7.134;2022-11-09T05:06:01;1.60;;;1.10;;
20142;SDS011;10509;46.476;7.134;2022-11-09T05:08:47;1.37;;;0.90;;
20142;SDS011;10509;46.476;7.134;2022-11-09T05:11:13;2.00;;;0.80;;
20142;SDS011;10509;46.476;7.134;2022-11-09T05:13:39;2.37;;;1.30;;
20142;SDS011;10509;46.476;7.134;2022-11-09T05:16:06;1.80;;;1.00;;
20142;SDS011;10509;46.476;7.134;2022-11-09T05:18:32;2.37;;;1.30;;
20142;SDS011;10509;46.476;7.134;2022-11-09T05:20:58;2.10;;;1.33;;
20142;SDS011;10509;46.476;7.134;2022-11-09T05:23:24;2.67;;;1.23;;
20142;SDS011;10509;46.476;7.134;2022-11-09T05:26:09;1.93;;;1.20;;
20142;SDS011;10509;46.476;7.134;2022-11-09T05:28:35;2.13;;;1.10;;
20142;SDS011;10509;46.476;7.134;2022-11-09T05:31:01;4.07;;;3.77;;
20142;SDS011;10509;46.476;7.134;2022-11-09T05:33:27;8.23;;;7.60;;
20142;SDS011;10509;46.476;7.134;2022-11-09T05:35:54;5.10;;;4.60;;
20142;SDS011;10509;46.476;7.134;2022-11-09T05:38:20;5.40;;;4.23;;
20142;SDS011;10509;46.476;7.134;2022-11-09T05:40:47;8.10;;;7.30;;
20142;SDS011;10509;46.476;7.134;2022-11-09T05:43:13;7.50;;;6.80;;
20142;SDS011;10509;46.476;7.134;2022-11-09T05:45:39;7.97;;;7.07;;
20142;SDS011;10509;46.476;7.134;2022-11-09T05:48:05;3.40;;;3.00;;
20142;SDS011;10509;46.476;7.134;2022-11-09T05:50:31;5.23;;;3.93;;
20142;SDS011;10509;46.476;7.134;2022-11-09T05:52:57;2.10;;;1.90;;
20142;SDS011;10509;46.476;7.134;2022-11-09T05:55:24;2.57;;;2.00;;
20142;SDS011;10509;46.476;7.134;2022-11-09T05:57:50;1.47;;;0.87;;
20142;SDS011;10509;46.476;7.134;2022-11-09T06:00:16;1.63;;;1.13;;
20142;SDS011;10509;46.476;7.134;2022-11-09T06:02:42;1.27;;;1.00;;
20142;SDS011;10509;46.476;7.134;2022-11-09T06:05:08;3.00;;;1.10;;
20142;SDS011;10509;46.476;7.134;2022-11-09T06:07:34;2.30;;;1.10;;
20142;SDS011;10509;46.476;7.134;2022-11-09T06:10:00;2.30;;;1.60;;
20142;SDS011;10509;46.476;7.134;2022-11-09T06:12:26;3.20;;;2.33;;
20142;SDS011;10509;46.476;7.134;2022-11-09T06:14:52;8.07;;;7.47;;
20142;SDS011;10509;46.476;7.134;2022-11-09T06:17:18;4.07;;;3.77;;
20142;SDS011;10509;46.476;7.134;2022-11-09T06:19:44;2.00;;;1.40;;
20142;SDS011;10509;46.476;7.134;2022-11-09T06:22:10;1.77;;;1.20;;
20142;SDS011;10509;46.476;7.134;2022-11-09T06:24:36;2.70;;;2.20;;
20142;SDS011;10509;46.476;7.134;2022-11-09T06:27:02;3.97;;;3.63;;
20142;SDS011;10509;46.476;7.134;2022-11-09T06:29:28;2.70;;;2.50;;
20142;SDS011;10509;46.476;7.134;2022-11-09T06:31:55;2.07;;;1.67;;
20142;SDS011;10509;46.476;7.134;2022-11-09T06:34:21;1.50;;;1.20;;
20142;SDS011;10509;46.476;7.134;2022-11-09T06:36:47;2.33;;;1.70;;
20142;SDS011;10509;46.476;7.134;2022-11-09T06:39:13;1.70;;;1.20;;
20142;SDS011;10509;46.476;7.134;2022-11-09T06:41:39;1.47;;;1.17;;
20142;SDS011;10509;46.476;7.134;2022-11-09T06:44:05;2.47;;;1.30;;
20142;SDS011;10509;46.476;7.134;2022-11-09T06:46:31;1.40;;;1.00;;
20142;SDS011;10509;46.476;7.134;2022-11-09T06:48:58;2.13;;;1.30;;
20142;SDS011;10509;46.476;7.134;2022-11-09T06:51:24;1.70;;;1.50;;
20142;SDS011;10509;46.476;7.134;2022-11-09T06:53:50;2.33;;;1.40;;
20142;SDS011;10509;46.476;7.134;2022-11-09T06:56:16;1.77;;;1.50;;
20142;SDS011;10509;46.476;7.134;2022-11-09T06:58:42;3.67;;;2.03;;
20142;SDS011;10509;46.476;7.134;2022-11-09T07:01:09;2.43;;;1.33;;
20142;SDS011;10509;46.476;7.134;2022-11-09T07:03:35;2.70;;;1.80;;
20142;SDS011;10509;46.476;7.134;2022-11-09T07:06:05;2.20;;;1.67;;
20142;SDS011;10509;46.476;7.134;2022-11-09T07:08:32;2.73;;;1.80;;
20142;SDS011;10509;46.476;7.134;2022-11-09T07:11:03;2.33;;;1.57;;
20142;SDS011;10509;46.476;7.134;2022-11-09T07:13:29;2.07;;;1.50;;
20142;SDS011;10509;46.476;7.134;2022-11-09T07:15:55;2.77;;;1.47;;
20142;SDS011;10509;46.476;7.134;2022-11-09T07:18:21;2.10;;;1.77;;
20142;SDS011;10509;46.476;7.134;2022-11-09T07:20:47;3.10;;;1.57;;
20142;SDS011;10509;46.476;7.134;2022-11-09T07:23:13;1.50;;;1.20;;
20142;SDS011;10509;46.476;7.134;2022-11-09T07:25:38;1.87;;;1.40;;
20142;SDS011;10509;46.476;7.134;2022-11-09T07:28:05;2.07;;;1.67;;
20142;SDS011;10509;46.476;7.134;2022-11-09T07:30:32;3.17;;;2.27;;
20142;SDS011;10509;46.476;7.134;2022-11-09T07:32:58;2.63;;;2.27;;
20142;SDS011;10509;46.476;7.134;2022-11-09T07:35:25;3.57;;;2.00;;
20142;SDS011;10509;46.476;7.134;2022-11-09T07:37:51;3.30;;;2.17;;
20142;SDS011;10509;46.476;7.134;2022-11-09T07:40:17;2.97;;;1.90;;
20142;SDS011;10509;46.476;7.134;2022-11-09T07:42:43;2.00;;;1.73;;
20142;SDS011;10509;46.476;7.134;2022-11-09T07:45:09;2.60;;;1.37;;
20142;SDS011;10509;46.476;7.134;2022-11-09T07:47:36;4.50;;;4.10;;
20142;SDS011;10509;46.476;7.134;2022-11-09T07:50:02;5.93;;;3.43;;
20142;SDS011;10509;46.476;7.134;2022-11-09T07:52:28;4.83;;;4.43;;
20142;SDS011;10509;46.476;7.134;2022-11-09T07:54:54;2.20;;;2.00;;
20142;SDS011;10509;46.476;7.134;2022-11-09T07:57:20;2.00;;;1.80;;
20142;SDS011;10509;46.476;7.134;2022-11-09T07:59:46;2.20;;;2.00;;
20142;SDS011;10509;46.476;7.134;2022-11-09T08:02:12;3.47;;;3.17;;
20142;SDS011;10509;46.476;7.134;2022-11-09T08:04:38;4.13;;;3.77;;
20142;SDS011;10509;46.476;7.134;2022-11-09T08:07:04;3.27;;;2.97;;
20142;SDS011;10509;46.476;7.134;2022-11-09T08:09:30;3.50;;;3.23;;
20142;SDS011;10509;46.476;7.134;2022-11-09T08:11:56;3.60;;;3.30;;
20142;SDS011;10509;46.476;7.134;2022-11-09T08:14:22;4.70;;;2.93;;
20142;SDS011;10509;46.476;7.134;2022-11-09T08:16:48;3.83;;;2.10;;
20142;SDS011;10509;46.476;7.134;2022-11-09T08:19:14;2.43;;;1.40;;
20142;SDS011;10509;46.476;7.134;2022-11-09T08:21:40;2.10;;;1.30;;
20142;SDS011;10509;46.476;7.134;2022-11-09T08:24:06;1.70;;;1.30;;
20142;SDS011;10509;46.476;7.134;2022-11-09T08:26:32;2.17;;;1.30;;
20142;SDS011;10509;46.476;7.134;2022-11-09T08:28:58;2.57;;;1.57;;
20142;SDS011;10509;46.476;7.134;2022-11-09T08:31:24;1.93;;;1.60;;
20142;SDS011;10509;46.476;7.134;2022-11-09T08:33:50;2.83;;;2.10;;
20142;SDS011;10509;46.476;7.134;2022-11-09T08:36:16;3.30;;;1.73;;
20142;SDS011;10509;46.476;7.134;2022-11-09T08:38:43;1.40;;;1.20;;
20142;SDS011;10509;46.476;7.134;2022-11-09T08:41:09;1.87;;;1.47;;
20142;SDS011;10509;46.476;7.134;2022-11-09T08:43:35;3.03;;;1.30;;
20142;SDS011;10509;46.476;7.134;2022-11-09T08:46:02;2.07;;;1.30;;
20142;SDS011;10509;46.476;7.134;2022-11-09T08:48:28;2.43;;;1.50;;
20142;SDS011;10509;46.476;7.134;2022-11-09T08:50:55;6.53;;;1.50;;
20142;SDS011;10509;46.476;7.134;2022-11-09T08:53:22;1.57;;;1.47;;
20142;SDS011;10509;46.476;7.134;2022-11-09T08:55:48;1.97;;;1.33;;
20142;SDS011;10509;46.476;7.134;2022-11-09T08:58:14;1.50;;;1.20;;
20142;SDS011;10509;46.476;7.134;2022-11-09T09:00:40;2.37;;;1.33;;
20142;SDS011;10509;46.476;7.134;2022-11-09T09:03:06;1.57;;;1.40;;
20142;SDS011;10509;46.476;7.134;2022-11-09T09:05:33;1.73;;;1.50;;
20142;SDS011;10509;46.476;7.134;2022-11-09T09:07:59;1.90;;;1.40;;
20142;SDS011;10509;46.476;7.134;2022-11-09T09:10:26;2.73;;;1.70;;
20142;SDS011;10509;46.476;7.134;2022-11-09T09:12:53;2.53;;;1.53;;
20142;SDS011;10509;46.476;7.134;2022-11-09T09:15:19;2.03;;;1.70;;
20142;SDS011;10509;46.476;7.134;2022-11-09T09:17:45;4.47;;;2.00;;
20142;SDS011;10509;46.476;7.134;2022-11-09T09:20:11;3.10;;;2.83;;
20142;SDS011;10509;46.476;7.134;2022-11-09T09:22:37;2.53;;;2.17;;
20142;SDS011;10509;46.476;7.134;2022-11-09T09:25:04;2.40;;;1.90;;
20142;SDS011;10509;46.476;7.134;2022-11-09T09:27:30;2.63;;;2.00;;
20142;SDS011;10509;46.476;7.134;2022-11-09T09:29:57;3.90;;;2.00;;
20142;SDS011;10509;46.476;7.134;2022-11-09T09:32:23;2.80;;;2.60;;
20142;SDS011;10509;46.476;7.134;2022-11-09T09:34:49;3.13;;;2.90;;
20142;SDS011;10509;46.476;7.134;2022-11-09T09:37:15;2.77;;;2.30;;
20142;SDS011;10509;46.476;7.134;2022-11-09T09:39:42;1.97;;;1.50;;
20142;SDS011;10509;46.476;7.134;2022-11-09T09:42:11;1.97;;;1.60;;
20142;SDS011;10509;46.476;7.134;2022-11-09T09:44:42;1.73;;;1.60;;
20142;SDS011;10509;46.476;7.134;2022-11-09T09:47:13;2.70;;;1.57;;
20142;SDS011;10509;46.476;7.134;2022-11-09T09:49:41;2.20;;;1.37;;
20142;SDS011;10509;46.476;7.134;2022-11-09T09:55:21;1.20;;;1.10;;
20142;SDS011;10509;46.476;7.134;2022-11-09T09:57:21;2.00;;;1.50;;
20142;SDS011;10509;46.476;7.134;2022-11-09T09:59:51;2.67;;;1.50;;
20142;SDS011;10509;46.476;7.134;2022-11-09T10:04:46;2.30;;;1.70;;
20142;SDS011;10509;46.476;7.134;2022-11-09T10:17:53;2.30;;;1.90;;
20142;SDS011;10509;46.476;7.134;2022-11-09T10:25:32;2.63;;;1.53;;
20142;SDS011;10509;46.476;7.134;2022-11-09T10:28:02;2.83;;;2.30;;
20142;SDS011;10509;46.476;7.134;2022-11-09T10:30:29;3.37;;;1.47;;
20142;SDS011;10509;46.476;7.134;2022-11-09T10:33:16;1.70;;;1.30;;
20142;SDS011;10509;46.476;7.134;2022-11-09T10:35:47;2.33;;;1.20;;
20142;SDS011;10509;46.476;7.134;2022-11-09T10:38:21;1.43;;;0.90;;
20142;SDS011;10509;46.476;7.134;2022-11-09T10:40:56;2.03;;;1.10;;
20142;SDS011;10509;46.476;7.134;2022-11-09T10:43:23;2.73;;;2.07;;
20142;SDS011;10509;46.476;7.134;2022-11-09T10:45:57;2.00;;;1.60;;
20142;SDS011;10509;46.476;7.134;2022-11-09T10:48:31;2.70;;;1.70;;
20142;SDS011;10509;46.476;7.134;2022-11-09T10:50:57;3.97;;;1.80;;
20142;SDS011;10509;46.476;7.134;2022-11-09T10:53:24;2.17;;;1.60;;
20142;SDS011;10509;46.476;7.134;2022-11-09T10:58:30;2.63;;;1.80;;
20142;SDS011;10509;46.476;7.134;2022-11-09T11:01:13;2.20;;;1.60;;
20142;SDS011;10509;46.476;7.134;2022-11-09T11:03:40;3.27;;;2.20;;
20142;SDS011;10509;46.476;7.134;2022-11-09T11:06:13;3.23;;;2.00;;
20142;SDS011;10509;46.476;7.134;2022-11-09T11:08:40;2.90;;;1.50;;
20142;SDS011;10509;46.476;7.134;2022-11-09T11:11:15;1.20;;;1.00;;
20142;SDS011;10509;46.476;7.134;2022-11-09T11:13:42;2.20;;;1.17;;
20142;SDS011;10509;46.476;7.134;2022-11-09T11:16:27;1.97;;;1.00;;
20142;SDS011;10509;46.476;7.134;2022-11-09T11:18:54;2.27;;;1.30;;
20142;SDS011;10509;46.476;7.134;2022-11-09T11:21:21;1.80;;;1.30;;
20142;SDS011;10509;46.476;7.134;2022-11-09T11:26:36;1.53;;;1.10;;
20142;SDS011;10509;46.476;7.134;2022-11-09T11:31:54;2.40;;;1.50;;
20142;SDS011;10509;46.476;7.134;2022-11-09T11:34:20;1.50;;;1.40;;
20142;SDS011;10509;46.476;7.134;2022-11-09T11:36:49;1.57;;;1.47;;
20142;SDS011;10509;46.476;7.134;2022-11-09T11:42:08;2.17;;;1.20;;
20142;SDS011;10509;46.476;7.134;2022-11-09T11:52:00;1.60;;;1.40;;
20142;SDS011;10509;46.476;7.134;2022-11-09T12:13:16;2.33;;;1.53;;
20142;SDS011;10509;46.476;7.134;2022-11-09T12:15:49;1.63;;;1.23;;
20142;SDS011;10509;46.476;7.134;2022-11-09T12:23:24;1.53;;;1.23;;
20142;SDS011;10509;46.476;7.134;2022-11-09T12:28:33;1.40;;;1.10;;
20142;SDS011;10509;46.476;7.134;2022-11-09T12:31:27;3.23;;;1.40;;
20142;SDS011;10509;46.476;7.134;2022-11-09T12:33:56;1.53;;;1.40;;
20142;SDS011;10509;46.476;7.134;2022-11-09T12:36:25;2.07;;;1.70;;
20142;SDS011;10509;46.476;7.134;2022-11-09T12:39:05;1.90;;;1.30;;
20142;SDS011;10509;46.476;7.134;2022-11-09T12:41:34;1.50;;;1.30;;
20142;SDS011;10509;46.476;7.134;2022-11-09T12:44:03;1.80;;;1.30;;
20142;SDS011;10509;46.476;7.134;2022-11-09T12:46:32;1.30;;;1.20;;
20142;SDS011;10509;46.476;7.134;2022-11-09T12:49:00;1.73;;;1.50;;
20142;SDS011;10509;46.476;7.134;2022-11-09T12:51:27;2.77;;;1.80;;
20142;SDS011;10509;46.476;7.134;2022-11-09T12:53:53;2.43;;;1.53;;
20142;SDS011;10509;46.476;7.134;2022-11-09T12:56:24;3.20;;;1.43;;
20142;SDS011;10509;46.476;7.134;2022-11-09T12:58:51;2.07;;;1.50;;
20142;SDS011;10509;46.476;7.134;2022-11-09T13:03:55;1.50;;;1.40;;
20142;SDS011;10509;46.476;7.134;2022-11-09T13:06:23;3.20;;;2.20;;
20142;SDS011;10509;46.476;7.134;2022-11-09T13:08:55;2.03;;;1.83;;
20142;SDS011;10509;46.476;7.134;2022-11-09T13:11:26;1.70;;;1.60;;
20142;SDS011;10509;46.476;7.134;2022-11-09T13:14:24;3.23;;;1.73;;
20142;SDS011;10509;46.476;7.134;2022-11-09T13:16:55;1.80;;;1.50;;
20142;SDS011;10509;46.476;7.134;2022-11-09T13:21:59;2.50;;;2.30;;
20142;SDS011;10509;46.476;7.134;2022-11-09T13:26:59;3.90;;;3.50;;
20142;SDS011;10509;46.476;7.134;2022-11-09T13:48:00;2.57;;;2.37;;
20142;SDS011;10509;46.476;7.134;2022-11-09T13:50:27;2.47;;;1.97;;
20142;SDS011;10509;46.476;7.134;2022-11-09T13:52:55;3.10;;;2.50;;
20142;SDS011;10509;46.476;7.134;2022-11-09T13:57:52;2.97;;;2.23;;
20142;SDS011;10509;46.476;7.134;2022-11-09T14:00:19;1.87;;;1.60;;
20142;SDS011;10509;46.476;7.134;2022-11-09T14:05:32;2.20;;;1.70;;
20142;SDS011;10509;46.476;7.134;2022-11-09T14:07:59;2.20;;;2.00;;
20142;SDS011;10509;46.476;7.134;2022-11-09T14:13:22;3.50;;;2.10;;
20142;SDS011;10509;46.476;7.134;2022-11-09T14:21:15;2.90;;;2.10;;
20142;SDS011;10509;46.476;7.134;2022-11-09T14:23:42;2.57;;;2.13;;
20142;SDS011;10509;46.476;7.134;2022-11-09T14:26:09;3.93;;;2.30;;
20142;SDS011;10509;46.476;7.134;2022-11-09T14:28:35;2.33;;;2.13;;
20142;SDS011;10509;46.476;7.134;2022-11-09T14:31:01;3.23;;;3.00;;
20142;SDS011;10509;46.476;7.134;2022-11-09T14:33:28;3.00;;;2.73;;
20142;SDS011;10509;46.476;7.134;2022-11-09T14:35:55;2.60;;;2.40;;
20142;SDS011;10509;46.476;7.134;2022-11-09T14:38:32;3.23;;;2.00;;
20142;SDS011;10509;46.476;7.134;2022-11-09T14:40:58;2.20;;;2.00;;
20142;SDS011;10509;46.476;7.134;2022-11-09T14:45:54;3.10;;;1.90;;
20142;SDS011;10509;46.476;7.134;2022-11-09T14:48:21;1.93;;;1.83;;
20142;SDS011;10509;46.476;7.134;2022-11-09T14:50:47;2.50;;;2.30;;
20142;SDS011;10509;46.476;7.134;2022-11-09T14:53:18;2.37;;;2.00;;
20142;SDS011;10509;46.476;7.134;2022-11-09T14:55:49;2.03;;;1.63;;
20142;SDS011;10509;46.476;7.134;2022-11-09T14:58:16;2.10;;;1.57;;
20142;SDS011;10509;46.476;7.134;2022-11-09T15:00:43;1.90;;;1.60;;
20142;SDS011;10509;46.476;7.134;2022-11-09T15:03:22;2.30;;;2.00;;
20142;SDS011;10509;46.476;7.134;2022-11-09T15:05:48;2.97;;;2.77;;
20142;SDS011;10509;46.476;7.134;2022-11-09T15:08:18;3.00;;;2.60;;
20142;SDS011;10509;46.476;7.134;2022-11-09T15:10:48;2.93;;;2.00;;
20142;SDS011;10509;46.476;7.134;2022-11-09T15:13:14;2.43;;;2.23;;
20142;SDS011;10509;46.476;7.134;2022-11-09T15:15:40;1.97;;;1.50;;
20142;SDS011;10509;46.476;7.134;2022-11-09T15:18:14;3.87;;;3.47;;
20142;SDS011;10509;46.476;7.134;2022-11-09T15:20:41;1.93;;;1.80;;
20142;SDS011;10509;46.476;7.134;2022-11-09T15:23:23;7.80;;;7.30;;
20142;SDS011;10509;46.476;7.134;2022-11-09T15:26:00;9.47;;;8.73;;
20142;SDS011;10509;46.476;7.134;2022-11-09T15:28:26;7.47;;;6.87;;
20142;SDS011;10509;46.476;7.134;2022-11-09T15:33:25;5.10;;;4.70;;
20142;SDS011;10509;46.476;7.134;2022-11-09T15:38:29;4.37;;;4.07;;
20142;SDS011;10509;46.476;7.134;2022-11-09T15:40:55;5.00;;;4.50;;
20142;SDS011;10509;46.476;7.134;2022-11-09T15:43:21;4.40;;;4.10;;
20142;SDS011;10509;46.476;7.134;2022-11-09T15:45:47;4.00;;;3.70;;
20142;SDS011;10509;46.476;7.134;2022-11-09T15:48:13;3.87;;;3.57;;
20142;SDS011;10509;46.476;7.134;2022-11-09T15:50:39;3.30;;;3.10;;
20142;SDS011;10509;46.476;7.134;2022-11-09T15:53:05;3.80;;;3.50;;
20142;SDS011;10509;46.476;7.134;2022-11-09T15:55:32;3.80;;;3.50;;
20142;SDS011;10509;46.476;7.134;2022-11-09T15:57:58;5.60;;;5.20;;
20142;SDS011;10509;46.476;7.134;2022-11-09T16:00:24;5.03;;;4.73;;
20142;SDS011;10509;46.476;7.134;2022-11-09T16:02:50;4.20;;;3.90;;
20142;SDS011;10509;46.476;7.134;2022-11-09T16:05:16;3.43;;;3.23;;
20142;SDS011;10509;46.476;7.134;2022-11-09T16:07:50;3.90;;;3.60;;
20142;SDS011;10509;46.476;7.134;2022-11-09T16:10:17;6.10;;;5.70;;
20142;SDS011;10509;46.476;7.134;2022-11-09T16:12:51;5.37;;;4.97;;
20142;SDS011;10509;46.476;7.134;2022-11-09T16:15:21;5.50;;;5.00;;
20142;SDS011;10509;46.476;7.134;2022-11-09T16:17:47;4.80;;;4.50;;
20142;SDS011;10509;46.476;7.134;2022-11-09T16:20:15;5.37;;;4.97;;
20142;SDS011;10509;46.476;7.134;2022-11-09T16:22:41;12.27;;;11.30;;
20142;SDS011;10509;46.476;7.134;2022-11-09T16:25:07;9.63;;;8.73;;
20142;SDS011;10509;46.476;7.134;2022-11-09T16:27:33;7.47;;;6.87;;
20142;SDS011;10509;46.476;7.134;2022-11-09T16:29:59;7.67;;;7.07;;
20142;SDS011;10509;46.476;7.134;2022-11-09T16:32:25;6.53;;;6.13;;
20142;SDS011;10509;46.476;7.134;2022-11-09T16:34:52;6.83;;;6.33;;
20142;SDS011;10509;46.476;7.134;2022-11-09T16:37:18;5.93;;;5.53;;
20142;SDS011;10509;46.476;7.134;2022-11-09T16:39:44;5.70;;;5.20;;
20142;SDS011;10509;46.476;7.134;2022-11-09T16:42:11;4.20;;;3.90;;
20142;SDS011;10509;46.476;7.134;2022-11-09T16:44:38;3.30;;;3.10;;